createdAt,value
2019-04-11T00:01:36.154Z,4.47
2019-04-11T00:03:56.200Z,4.90
2019-04-11T00:06:25.714Z,4.72
2019-04-11T00:08:55.120Z,4.92
2019-04-11T00:11:24.522Z,4.60
2019-04-11T00:13:53.850Z,5.00
2019-04-11T00:16:23.552Z,4.12
2019-04-11T00:18:54.723Z,4.72
2019-04-11T00:21:24.979Z,5.10
2019-04-11T00:23:54.579Z,5.25
2019-04-11T00:26:24.446Z,5.20
2019-04-11T00:28:54.231Z,5.03
2019-04-11T00:31:25.064Z,4.80
2019-04-11T00:33:54.512Z,4.67
2019-04-11T00:36:24.202Z,5.00
2019-04-11T00:38:54.972Z,4.95
2019-04-11T00:41:24.454Z,5.10
2019-04-11T00:43:54.637Z,5.50
2019-04-11T00:46:24.555Z,4.80
2019-04-11T00:48:54.459Z,4.70
2019-04-11T00:51:23.875Z,5.05
2019-04-11T00:53:54.129Z,5.08
2019-04-11T00:56:24.170Z,4.95
2019-04-11T00:58:54.008Z,5.03
2019-04-11T01:01:23.975Z,5.30
2019-04-11T01:03:53.716Z,4.70
2019-04-11T01:06:23.182Z,5.65
2019-04-11T01:08:53.720Z,5.08
2019-04-11T01:11:23.746Z,5.28
2019-04-11T01:13:55.524Z,4.90
2019-04-11T01:16:45.145Z,4.92
2019-04-11T01:19:14.470Z,5.03
2019-04-11T01:21:44.518Z,5.08
2019-04-11T01:24:14.198Z,5.45
2019-04-11T01:26:43.535Z,5.55
2019-04-11T01:29:13.422Z,5.67
2019-04-11T01:31:44.455Z,5.20
2019-04-11T01:34:16.114Z,5.22
2019-04-11T01:36:45.574Z,5.60
2019-04-11T01:39:32.972Z,5.42
2019-04-11T01:42:02.753Z,5.42
2019-04-11T01:44:32.579Z,5.28
2019-04-11T01:47:02.543Z,5.53
2019-04-11T01:49:32.402Z,5.58
2019-04-11T01:52:04.733Z,5.20
2019-04-11T01:54:33.904Z,5.37
2019-04-11T01:57:03.549Z,5.28
2019-04-11T01:59:33.801Z,5.55
2019-04-11T02:02:11.484Z,5.78
2019-04-11T02:04:46.051Z,5.37
2019-04-11T02:07:15.505Z,5.40
2019-04-11T02:09:44.853Z,5.70
2019-04-11T02:12:14.250Z,5.70
2019-04-11T02:14:43.911Z,5.87
2019-04-11T02:17:13.312Z,5.45
2019-04-11T02:19:42.657Z,5.58
2019-04-11T02:22:19.578Z,6.00
2019-04-11T02:24:54.304Z,5.58
2019-04-11T02:27:25.977Z,5.37
2019-04-11T02:29:55.557Z,5.70
2019-04-11T02:32:28.629Z,5.78
2019-04-11T02:34:59.159Z,5.50
2019-04-11T02:37:29.372Z,6.12
2019-04-11T02:40:00.092Z,5.30
2019-04-11T02:42:30.660Z,5.87
2019-04-11T02:45:16.530Z,6.00
2019-04-11T02:47:34.692Z,5.45
2019-04-11T02:50:03.682Z,5.87
2019-04-11T02:52:33.635Z,5.87
2019-04-11T02:55:04.085Z,6.15
2019-04-11T02:57:35.893Z,5.92
2019-04-11T03:00:08.572Z,5.78
2019-04-11T03:02:39.385Z,6.00
2019-04-11T03:05:10.127Z,5.55
2019-04-11T03:07:42.181Z,5.80
2019-04-11T03:10:13.841Z,6.05
2019-04-11T03:12:43.873Z,6.05
2019-04-11T03:15:27.432Z,5.45
2019-04-11T03:17:47.891Z,6.03
2019-04-11T03:20:28.316Z,5.90
2019-04-11T03:22:54.167Z,6.05
2019-04-11T03:25:19.958Z,5.80
2019-04-11T03:27:51.601Z,6.47
2019-04-11T03:30:30.456Z,6.35
2019-04-11T03:38:18.793Z,6.05
2019-04-11T03:40:47.044Z,6.40
2019-04-11T03:43:11.114Z,7.20
2019-04-11T03:45:50.070Z,6.15
2019-04-11T03:48:12.456Z,7.03
2019-04-11T03:50:32.875Z,7.00
2019-04-11T03:53:04.061Z,6.78
2019-04-11T03:55:34.861Z,6.28
2019-04-11T03:58:06.186Z,6.87
2019-04-11T04:00:38.783Z,7.15
2019-04-11T04:03:09.269Z,6.87
2019-04-11T04:05:41.088Z,6.87
2019-04-11T04:08:10.861Z,7.40
2019-04-11T04:10:43.596Z,6.53
2019-04-11T04:13:16.991Z,7.30
2019-04-11T04:16:17.072Z,6.62
2019-04-11T04:18:38.089Z,6.87
2019-04-11T04:21:15.613Z,6.35
2019-04-11T04:23:46.885Z,6.78
2019-04-11T04:26:17.002Z,7.33
2019-04-11T04:28:47.618Z,7.15
2019-04-11T04:31:18.429Z,6.78
2019-04-11T04:33:48.340Z,6.67
2019-04-11T04:36:18.326Z,6.85
2019-04-11T04:38:48.871Z,7.22
2019-04-11T04:41:30.935Z,6.95
2019-04-11T04:43:52.787Z,6.70
2019-04-11T04:46:34.735Z,7.25
2019-04-11T04:48:55.958Z,7.22
2019-04-11T04:51:26.741Z,6.75
2019-04-11T04:53:57.772Z,6.92
2019-04-11T04:56:31.629Z,7.35
2019-04-11T04:58:58.860Z,7.17
2019-04-11T05:01:29.009Z,6.50
2019-04-11T05:03:59.339Z,7.00
2019-04-11T05:06:28.834Z,7.20
2019-04-11T05:08:59.714Z,7.15
2019-04-11T05:11:30.568Z,7.42
2019-04-11T05:14:00.910Z,6.75
2019-04-11T05:16:31.322Z,7.83
2019-04-11T05:19:01.824Z,6.80
2019-04-11T05:21:31.147Z,7.55
2019-04-11T05:24:00.482Z,7.65
2019-04-11T05:26:29.819Z,7.33
2019-04-11T05:28:59.151Z,7.10
2019-04-11T05:31:28.480Z,8.40
2019-04-11T05:33:57.832Z,8.35
2019-04-11T05:36:28.301Z,8.05
2019-04-11T05:38:58.258Z,7.92
2019-04-11T05:41:27.678Z,8.55
2019-04-11T05:44:00.765Z,7.78
2019-04-11T05:46:35.226Z,7.75
2019-04-11T05:49:03.857Z,7.25
2019-04-11T05:51:41.611Z,8.05
2019-04-11T05:54:07.653Z,7.85
2019-04-11T05:56:36.049Z,7.60
2019-04-11T05:59:24.453Z,7.60
2019-04-11T06:01:55.810Z,8.80
2019-04-11T06:04:28.553Z,8.48
2019-04-11T06:07:00.076Z,9.30
2019-04-11T06:09:36.024Z,7.83
2019-04-11T06:12:21.451Z,7.87
2019-04-11T06:15:05.884Z,8.68
2019-04-11T06:17:36.529Z,7.80
2019-04-11T06:20:12.613Z,8.10
2019-04-11T06:22:43.537Z,9.05
2019-04-11T06:25:16.452Z,8.53
2019-04-11T06:27:47.441Z,7.77
2019-04-11T06:30:21.261Z,8.03
2019-04-11T06:35:44.910Z,8.83
2019-04-11T06:38:25.033Z,8.60
2019-04-11T06:41:02.024Z,8.63
2019-04-11T06:43:36.241Z,8.58
2019-04-11T06:46:16.666Z,7.95
2019-04-11T06:48:47.740Z,9.55
2019-04-11T06:51:19.797Z,8.90
2019-04-11T06:53:56.900Z,9.13
2019-04-11T06:56:30.566Z,9.00
2019-04-11T06:59:04.398Z,9.30
2019-04-11T07:01:34.228Z,9.70
2019-04-11T07:04:05.332Z,8.88
2019-04-11T07:06:36.302Z,8.63
2019-04-11T07:09:09.564Z,9.30
2019-04-11T07:11:43.228Z,10.28
2019-04-11T07:17:13.780Z,11.00
2019-04-11T07:20:02.529Z,9.40
2019-04-11T07:22:50.948Z,9.35
2019-04-11T07:25:22.403Z,8.83
2019-04-11T07:27:59.450Z,9.53
2019-04-11T07:30:39.635Z,9.45
2019-04-11T07:33:26.953Z,9.33
2019-04-11T07:36:14.637Z,9.80
2019-04-11T07:39:03.254Z,9.75
2019-04-11T07:41:39.159Z,9.95
2019-04-11T07:44:10.950Z,9.83
2019-04-11T07:46:47.619Z,10.43
2019-04-11T07:49:18.583Z,10.05
2019-04-11T07:51:50.807Z,10.78
2019-04-11T07:54:20.555Z,10.30
2019-04-11T07:57:01.375Z,10.25
2019-04-11T07:59:39.710Z,9.98
2019-04-11T08:02:24.322Z,10.82
2019-04-11T08:05:11.134Z,10.28
2019-04-11T08:07:43.073Z,10.28
2019-04-11T08:10:14.193Z,10.70
2019-04-11T08:12:44.085Z,10.78
2019-04-11T08:15:15.484Z,10.82
2019-04-11T08:17:46.067Z,11.53
2019-04-11T08:20:33.532Z,10.95
2019-04-11T08:23:05.615Z,11.40
2019-04-11T08:25:53.669Z,9.88
2019-04-11T08:28:23.240Z,11.03
2019-04-11T08:30:55.184Z,11.83
2019-04-11T08:33:26.735Z,11.25
2019-04-11T08:35:58.321Z,10.53
2019-04-11T08:38:29.758Z,9.78
2019-04-11T08:41:01.108Z,10.35
2019-04-11T08:43:32.030Z,10.55
2019-04-11T08:46:15.104Z,9.78
2019-04-11T08:48:53.060Z,11.25
2019-04-11T08:51:25.289Z,10.48
2019-04-11T08:53:59.374Z,10.13
2019-04-11T08:56:29.576Z,10.13
2019-04-11T08:59:34.094Z,10.32
2019-04-11T09:02:04.627Z,9.68
2019-04-11T09:05:03.183Z,9.68
2019-04-11T09:07:41.426Z,9.25
2019-04-11T09:10:31.709Z,9.40
2019-04-11T09:13:09.084Z,9.83
2019-04-11T09:15:53.010Z,9.20
2019-04-11T09:18:22.360Z,8.88
2019-04-11T09:21:04.827Z,8.80
2019-04-11T09:23:35.796Z,7.97
2019-04-11T09:26:10.183Z,7.85
2019-04-11T09:28:41.834Z,8.10
2019-04-11T09:31:29.608Z,7.50
2019-04-11T09:34:19.575Z,7.80
2019-04-11T09:36:59.601Z,8.18
2019-04-11T09:39:30.976Z,7.87
2019-04-11T09:42:19.806Z,7.55
2019-04-11T09:44:49.861Z,7.37
2019-04-11T09:47:36.927Z,6.50
2019-04-11T09:50:20.441Z,6.25
2019-04-11T09:52:51.651Z,6.03
2019-04-11T09:55:29.064Z,6.85
2019-04-11T09:58:01.140Z,7.37
2019-04-11T10:00:48.454Z,7.03
2019-04-11T10:03:19.741Z,7.33
2019-04-11T10:05:51.631Z,6.62
2019-04-11T10:08:41.650Z,6.45
2019-04-11T10:11:18.646Z,5.92
2019-04-11T10:13:59.599Z,6.15
2019-04-11T10:16:31.732Z,5.70
2019-04-11T10:19:08.509Z,5.90
2019-04-11T10:21:39.635Z,7.33
2019-04-11T10:24:20.856Z,6.80
2019-04-11T10:26:52.149Z,6.37
2019-04-11T10:29:37.935Z,7.45
2019-04-11T10:32:09.061Z,8.40
2019-04-11T10:34:52.220Z,8.20
2019-04-11T10:37:21.879Z,7.60
2019-04-11T10:39:53.594Z,7.97
2019-04-11T10:42:24.597Z,7.40
2019-04-11T10:44:58.353Z,7.30
2019-04-11T10:50:17.550Z,7.83
2019-04-11T10:52:48.937Z,7.05
2019-04-11T10:55:19.855Z,7.80
2019-04-11T10:57:52.035Z,7.42
2019-04-11T11:00:39.737Z,7.25
2019-04-11T11:03:13.842Z,7.05
2019-04-11T11:05:44.774Z,7.37
2019-04-11T11:08:33.596Z,7.25
2019-04-11T11:11:17.499Z,4.83
2019-04-11T11:16:20.250Z,7.33
2019-04-11T11:19:19.484Z,7.28
2019-04-11T11:21:28.577Z,7.28
2019-04-11T11:24:11.831Z,7.10
2019-04-11T11:26:43.267Z,6.75
2019-04-11T11:29:15.771Z,7.75
2019-04-11T11:31:47.666Z,7.10
2019-04-11T11:34:38.914Z,7.30
2019-04-11T11:37:29.111Z,7.05
2019-04-11T11:40:12.028Z,7.55
2019-04-11T11:42:54.644Z,7.22
2019-04-11T11:45:41.559Z,7.20
2019-04-11T11:48:28.663Z,7.12
2019-04-11T11:50:59.654Z,7.03
2019-04-11T11:53:31.385Z,6.95
2019-04-11T11:56:02.139Z,7.50
2019-04-11T11:58:43.549Z,6.80
2019-04-11T12:01:15.692Z,6.58
2019-04-11T12:03:46.746Z,7.25
2019-04-11T12:06:20.765Z,7.22
2019-04-11T12:09:04.918Z,6.80
2019-04-11T12:11:37.967Z,6.75
2019-04-11T12:14:25.169Z,7.17
2019-04-11T12:17:01.953Z,7.00
2019-04-11T12:19:46.865Z,6.72
2019-04-11T12:22:06.214Z,6.75
2019-04-11T12:24:38.579Z,6.70
2019-04-11T12:27:16.400Z,6.25
2019-04-11T12:30:05.813Z,7.35
2019-04-11T12:32:48.718Z,7.37
2019-04-11T12:35:27.716Z,7.10
2019-04-11T12:37:59.954Z,7.60
2019-04-11T12:40:30.923Z,8.58
2019-04-11T12:43:01.917Z,7.25
2019-04-11T12:45:41.613Z,7.83
2019-04-11T12:48:12.109Z,7.03
2019-04-11T12:50:59.677Z,7.33
2019-04-11T12:53:29.100Z,7.33
2019-04-11T12:56:02.716Z,8.40
2019-04-11T12:58:33.859Z,8.00
2019-04-11T13:01:04.846Z,7.28
2019-04-11T13:03:47.576Z,7.33
2019-04-11T13:06:21.342Z,7.58
2019-04-11T13:09:01.361Z,7.80
2019-04-11T13:11:33.940Z,7.95
2019-04-11T13:14:04.910Z,7.28
2019-04-11T13:16:34.268Z,7.45
2019-04-11T13:19:05.217Z,7.80
2019-04-11T13:21:36.354Z,8.68
2019-04-11T13:24:25.703Z,8.23
2019-04-11T13:27:08.541Z,8.78
2019-04-11T13:29:45.015Z,9.00
2019-04-11T13:32:32.136Z,7.85
2019-04-11T13:35:12.173Z,8.10
2019-04-11T13:37:59.253Z,7.42
2019-04-11T13:40:45.677Z,7.65
2019-04-11T13:43:26.613Z,7.95
2019-04-11T13:46:13.859Z,8.28
2019-04-11T13:48:45.084Z,7.67
2019-04-11T13:51:31.310Z,8.33
2019-04-11T13:54:10.791Z,8.10
2019-04-11T13:56:58.514Z,8.30
2019-04-11T13:59:35.215Z,8.23
2019-04-11T14:02:16.481Z,9.05
2019-04-11T14:04:50.891Z,8.03
2019-04-11T14:07:33.934Z,8.60
2019-04-11T14:10:04.996Z,8.20
2019-04-11T14:12:34.392Z,8.45
2019-04-11T14:15:15.475Z,8.10
2019-04-11T14:18:04.953Z,8.63
2019-04-11T14:20:35.349Z,8.53
2019-04-11T14:23:07.583Z,8.80
2019-04-11T14:25:44.791Z,8.30
2019-04-11T14:28:15.763Z,8.30
2019-04-11T14:31:02.506Z,8.30
2019-04-11T14:33:33.492Z,8.10
2019-04-11T14:36:20.658Z,8.25
2019-04-11T14:38:52.286Z,7.95
2019-04-11T14:41:29.422Z,8.48
2019-04-11T14:44:00.427Z,8.73
2019-04-11T14:46:40.422Z,8.63
2019-04-11T14:49:10.529Z,8.85
2019-04-11T14:51:43.913Z,7.92
2019-04-11T14:54:17.287Z,8.43
2019-04-11T14:56:47.890Z,8.87
2019-04-11T14:59:37.882Z,9.35
2019-04-11T15:02:20.797Z,8.73
2019-04-11T15:05:08.413Z,8.83
2019-04-11T15:07:39.128Z,8.75
2019-04-11T15:10:11.455Z,9.18
2019-04-11T15:12:41.273Z,9.45
2019-04-11T15:15:24.759Z,9.15
2019-04-11T15:17:56.074Z,8.90
2019-04-11T15:20:33.924Z,9.53
2019-04-11T15:23:06.919Z,8.93
2019-04-11T15:25:38.594Z,8.58
2019-04-11T15:28:21.785Z,9.83
2019-04-11T15:31:04.571Z,9.28
2019-04-11T15:33:35.540Z,9.53
2019-04-11T15:36:06.533Z,8.90
2019-04-11T15:38:49.809Z,9.65
2019-04-11T15:41:19.441Z,9.70
2019-04-11T15:43:50.415Z,9.53
2019-04-11T15:46:24.341Z,9.03
2019-04-11T15:49:20.885Z,8.93
2019-04-11T15:51:44.094Z,9.30
2019-04-11T15:54:15.067Z,9.65
2019-04-11T15:56:48.988Z,10.30
2019-04-11T15:59:20.018Z,9.00
2019-04-11T16:02:07.152Z,9.30
2019-04-11T16:04:38.145Z,9.25
2019-04-11T16:07:12.075Z,9.30
2019-04-11T16:09:43.944Z,9.65
2019-04-11T16:12:31.452Z,9.43
2019-04-11T16:15:19.557Z,10.10
2019-04-11T16:17:59.097Z,9.68
2019-04-11T16:20:28.461Z,9.40
2019-04-11T16:23:11.505Z,9.25
2019-04-11T16:25:41.529Z,9.75
2019-04-11T16:28:21.698Z,11.08
2019-04-11T16:30:52.906Z,10.00
2019-04-11T16:33:26.301Z,10.45
2019-04-11T16:36:04.293Z,10.58
2019-04-11T16:38:40.670Z,10.08
2019-04-11T16:41:27.846Z,10.82
2019-04-11T16:43:58.824Z,10.50
2019-04-11T16:46:41.818Z,11.63
2019-04-11T16:49:11.405Z,10.32
2019-04-11T16:51:40.813Z,10.35
2019-04-11T16:54:10.354Z,10.78
2019-04-11T16:56:41.722Z,9.80
2019-04-11T16:59:10.701Z,10.32
2019-04-11T17:01:40.033Z,9.55
2019-04-11T17:04:10.562Z,9.70
2019-04-11T17:06:57.503Z,9.68
2019-04-11T17:09:37.596Z,9.30
2019-04-11T17:12:07.191Z,10.13
2019-04-11T17:14:36.548Z,10.78
2019-04-11T17:17:14.960Z,9.78
2019-04-11T17:19:37.173Z,9.98
2019-04-11T17:22:08.222Z,9.88
2019-04-11T17:24:37.585Z,9.55
2019-04-11T17:27:07.192Z,9.68
2019-04-11T17:29:36.763Z,9.48
2019-04-11T17:32:06.107Z,10.13
2019-04-11T17:34:35.438Z,9.90
2019-04-11T17:37:04.872Z,9.33
2019-04-11T17:39:36.810Z,10.05
2019-04-11T17:42:08.270Z,9.40
2019-04-11T17:44:37.597Z,9.45
2019-04-11T17:47:06.950Z,10.25
2019-04-11T17:49:36.282Z,10.03
2019-04-11T17:52:07.198Z,9.85
2019-04-11T17:54:36.533Z,8.88
2019-04-11T17:57:05.872Z,10.90
2019-04-11T17:59:35.219Z,10.98
2019-04-11T18:02:05.724Z,10.03
2019-04-11T18:04:35.059Z,10.08
2019-04-11T18:07:04.724Z,10.98
2019-04-11T18:09:35.036Z,10.45
2019-04-11T18:12:04.433Z,9.93
2019-04-11T18:14:33.789Z,9.93
2019-04-11T18:17:04.566Z,9.35
2019-04-11T18:19:36.255Z,9.28
2019-04-11T18:22:08.292Z,8.95
2019-04-11T18:24:37.016Z,8.75
2019-04-11T18:27:06.591Z,8.95
2019-04-11T18:29:35.925Z,8.60
2019-04-11T18:32:05.412Z,9.03
2019-04-11T18:34:34.813Z,9.53
2019-04-11T18:37:04.518Z,9.00
2019-04-11T18:39:36.044Z,8.93
2019-04-11T18:42:05.731Z,8.43
2019-04-11T18:44:35.066Z,8.03
2019-04-11T18:47:04.463Z,8.68
2019-04-11T18:49:33.810Z,8.68
2019-04-11T18:52:03.120Z,8.83
2019-04-11T18:54:32.724Z,8.80
2019-04-11T18:57:02.063Z,8.63
2019-04-11T18:59:33.807Z,8.08
2019-04-11T19:02:02.464Z,9.33
2019-04-11T19:04:32.977Z,8.83
2019-04-11T19:07:04.811Z,8.85
2019-04-11T19:09:34.965Z,8.88
2019-04-11T19:12:06.226Z,8.60
2019-04-11T19:14:35.626Z,9.10
2019-04-11T19:17:04.970Z,8.53
2019-04-11T19:19:34.321Z,7.92
2019-04-11T19:22:04.119Z,8.28
2019-04-11T19:24:35.660Z,7.85
2019-04-11T19:27:04.686Z,8.55
2019-04-11T19:29:34.137Z,7.62
2019-04-11T19:32:03.554Z,8.48
2019-04-11T19:34:32.877Z,8.15
2019-04-11T19:37:03.759Z,8.10
2019-04-11T19:39:33.559Z,8.45
2019-04-11T19:42:08.819Z,8.18
2019-04-11T19:44:35.218Z,7.97
2019-04-11T19:47:04.628Z,8.05
2019-04-11T19:49:33.960Z,8.65
2019-04-11T19:52:03.299Z,8.20
2019-04-11T19:54:34.035Z,7.35
2019-04-11T19:57:06.942Z,8.38
2019-04-11T19:59:36.282Z,7.73
2019-04-11T20:02:05.687Z,7.97
2019-04-11T20:04:35.126Z,8.48
2019-04-11T20:07:04.654Z,7.83
2019-04-11T20:09:33.981Z,8.38
2019-04-11T20:12:03.324Z,8.20
2019-04-11T20:14:34.882Z,7.72
2019-04-11T20:17:04.027Z,7.60
2019-04-11T20:19:33.421Z,7.65
2019-04-11T20:22:02.906Z,7.20
2019-04-11T20:24:32.249Z,7.83
2019-04-11T20:27:01.595Z,7.70
2019-04-11T20:29:32.387Z,7.37
2019-04-11T20:32:01.725Z,7.72
2019-04-11T20:34:31.054Z,7.28
2019-04-11T20:37:00.464Z,7.80
2019-04-11T20:39:30.096Z,7.62
2019-04-11T20:41:59.436Z,7.25
2019-04-11T20:44:28.772Z,7.50
2019-04-11T20:47:00.407Z,7.53
2019-04-11T20:49:29.461Z,7.20
2019-04-11T20:51:59.075Z,7.97
2019-04-11T20:54:28.472Z,7.47
2019-04-11T20:56:58.075Z,6.92
2019-04-11T20:59:34.341Z,7.00
2019-04-11T21:01:58.773Z,7.42
2019-04-11T21:04:28.087Z,7.53
2019-04-11T21:06:57.442Z,7.30
2019-04-11T21:09:27.944Z,6.87
2019-04-11T21:11:57.281Z,7.10
2019-04-11T21:14:26.637Z,7.20
2019-04-11T21:16:55.979Z,6.92
2019-04-11T21:19:25.710Z,7.25
2019-04-11T21:21:55.028Z,6.75
2019-04-11T21:24:24.364Z,7.00
2019-04-11T21:26:53.996Z,7.05
2019-04-11T21:29:25.628Z,6.35
2019-04-11T21:31:54.386Z,7.08
2019-04-11T21:34:23.717Z,6.37
2019-04-11T21:36:53.052Z,6.65
2019-04-11T21:39:22.457Z,6.67
2019-04-11T21:41:51.788Z,7.65
2019-04-11T21:44:21.137Z,7.35
2019-04-11T21:46:50.753Z,6.50
2019-04-11T21:49:20.112Z,7.25
2019-04-11T21:51:49.433Z,6.35
2019-04-11T21:54:18.770Z,6.80
2019-04-11T21:56:49.600Z,6.28
2019-04-11T21:59:20.384Z,6.17
2019-04-11T22:01:53.863Z,6.42
2019-04-11T22:04:21.696Z,6.78
2019-04-11T22:06:51.139Z,6.95
2019-04-11T22:09:20.832Z,6.20
2019-04-11T22:11:50.223Z,5.97
2019-04-11T22:14:19.550Z,6.58
2019-04-11T22:16:48.882Z,7.17
2019-04-11T22:19:18.474Z,6.65
2019-04-11T22:21:47.837Z,6.00
2019-04-11T22:24:17.167Z,6.47
2019-04-11T22:26:50.135Z,6.35
2019-04-11T22:29:17.525Z,6.62
2019-04-11T22:31:46.877Z,6.22
2019-04-11T22:34:17.847Z,6.67
2019-04-11T22:36:48.151Z,6.00
2019-04-11T22:39:18.259Z,6.62
2019-04-11T22:41:47.602Z,7.20
2019-04-11T22:44:16.931Z,6.35
2019-04-11T22:46:46.579Z,6.47
2019-04-11T22:49:15.907Z,6.92
2019-04-11T22:51:45.246Z,6.78
2019-04-11T22:54:14.581Z,6.08
2019-04-11T22:56:44.879Z,6.87
2019-04-11T22:59:14.603Z,6.20
2019-04-11T23:01:46.727Z,6.30
2019-04-11T23:04:17.148Z,6.08
2019-04-11T23:06:47.249Z,6.78
2019-04-11T23:09:19.509Z,5.55
2019-04-11T23:11:48.204Z,6.53
2019-04-11T23:14:17.546Z,6.60
2019-04-11T23:16:46.871Z,7.12
2019-04-11T23:19:16.203Z,7.03
2019-04-11T23:21:45.826Z,7.20
2019-04-11T23:24:15.150Z,7.05
2019-04-11T23:26:44.496Z,6.85
2019-04-11T23:29:15.963Z,6.47
2019-04-11T23:31:44.849Z,7.40
2019-04-11T23:34:14.179Z,7.08
2019-04-11T23:36:43.516Z,7.37
2019-04-11T23:39:12.849Z,7.70
2019-04-11T23:41:42.574Z,7.53
2019-04-11T23:44:11.901Z,7.60
2019-04-11T23:46:42.225Z,7.42
2019-04-11T23:49:11.557Z,7.70
2019-04-11T23:51:40.892Z,7.03
2019-04-11T23:54:10.236Z,7.30
2019-04-11T23:56:39.572Z,7.35
2019-04-11T23:59:09.232Z,7.35
